Time;durP1;ratioP1;P1;durP2;ratioP2;P2;SDS_P1;SDS_P2;PMS_P1;PMS_P2;Temp;Humidity;BMP_temperature;BMP_pressure;BME280_temperature;BME280_humidity;BME280_pressure;Samples;Min_cycle;Max_cycle;Signal;HPM_P1;HPM_P2
2023/03/15 00:00:19;;;;;;;5.50;1.40;;;;;;;;;;4981919;28;20052;-65
2023/03/15 00:02:49;;;;;;;3.65;1.25;;;;;;;;;;5048106;28;20057;-64
2023/03/15 00:05:20;;;;;;;7.03;1.55;;;;;;;;;;5031842;28;20053;-59
2023/03/15 00:07:50;;;;;;;5.55;1.35;;;;;;;;;;4988878;28;20512;-64
2023/03/15 00:10:20;;;;;;;5.70;1.30;;;;;;;;;;4988875;28;20058;-59
2023/03/15 00:12:50;;;;;;;3.50;1.20;;;;;;;;;;4988882;28;20487;-65
2023/03/15 00:15:19;;;;;;;4.50;1.50;;;;;;;;;;4972723;28;20391;-64
2023/03/15 00:17:49;;;;;;;4.90;1.80;;;;;;;;;;4988732;28;20685;-63
2023/03/15 00:20:19;;;;;;;4.10;1.55;;;;;;;;;;4956523;28;20043;-64
2023/03/15 00:22:49;;;;;;;5.03;1.60;;;;;;;;;;4950377;29;20055;-71
2023/03/15 00:25:19;;;;;;;4.55;1.75;;;;;;;;;;4950263;29;20467;-63
2023/03/15 00:27:48;;;;;;;6.95;1.63;;;;;;;;;;4952869;28;20055;-61
2023/03/15 00:30:18;;;;;;;4.45;1.60;;;;;;;;;;4971681;28;20050;-67
2023/03/15 00:32:48;;;;;;;3.88;1.85;;;;;;;;;;4992501;28;20066;-63
2023/03/15 00:35:19;;;;;;;5.03;1.42;;;;;;;;;;4992665;28;20055;-63
2023/03/15 00:37:54;;;;;;;4.18;1.50;;;;;;;;;;4976084;28;20058;-60
2023/03/15 00:40:24;;;;;;;4.20;1.42;;;;;;;;;;4928169;28;20571;-64
2023/03/15 00:42:56;;;;;;;2.10;1.30;;;;;;;;;;4992173;28;20042;-63
2023/03/15 00:45:27;;;;;;;4.30;1.42;;;;;;;;;;5012753;28;20058;-64
2023/03/15 00:47:57;;;;;;;4.50;1.20;;;;;;;;;;5032736;28;20045;-63
2023/03/15 00:50:26;;;;;;;9.80;1.50;;;;;;;;;;5015503;28;20505;-68
2023/03/15 00:52:57;;;;;;;2.53;1.33;;;;;;;;;;5051062;28;20052;-64
2023/03/15 00:55:28;;;;;;;5.53;1.70;;;;;;;;;;5018694;28;20516;-60
2023/03/15 00:57:58;;;;;;;5.25;1.40;;;;;;;;;;5070931;28;20451;-63
2023/03/15 01:00:29;;;;;;;5.63;1.50;;;;;;;;;;5051212;28;20040;-61
2023/03/15 01:02:58;;;;;;;6.20;1.88;;;;;;;;;;5050806;28;20053;-63
2023/03/15 01:05:30;;;;;;;4.70;1.40;;;;;;;;;;5031163;28;20060;-60
2023/03/15 01:08:01;;;;;;;2.92;1.45;;;;;;;;;;4994986;28;20049;-59
2023/03/15 01:10:34;;;;;;;6.60;1.60;;;;;;;;;;5011166;28;20046;-70
2023/03/15 01:13:06;;;;;;;3.60;1.33;;;;;;;;;;5010953;28;20167;-63
2023/03/15 01:15:36;;;;;;;2.10;1.30;;;;;;;;;;5011400;28;20505;-62
2023/03/15 01:18:06;;;;;;;7.00;1.55;;;;;;;;;;4959008;28;20066;-63
2023/03/15 01:20:36;;;;;;;4.47;1.33;;;;;;;;;;4959315;28;20055;-72
2023/03/15 01:23:06;;;;;;;3.65;1.40;;;;;;;;;;4959074;28;20057;-65
2023/03/15 01:25:36;;;;;;;2.97;1.35;;;;;;;;;;4975045;28;20046;-64
2023/03/15 01:28:06;;;;;;;3.47;1.67;;;;;;;;;;4972629;28;20569;-63
2023/03/15 01:30:36;;;;;;;5.68;1.60;;;;;;;;;;4981226;28;20047;-65
2023/03/15 01:33:06;;;;;;;6.47;1.67;;;;;;;;;;4933515;29;20066;-60
2023/03/15 01:35:36;;;;;;;10.35;1.55;;;;;;;;;;4936104;28;20499;-63
2023/03/15 01:38:06;;;;;;;5.28;1.35;;;;;;;;;;4941974;29;20074;-69
2023/03/15 01:40:41;;;;;;;2.92;1.50;;;;;;;;;;4933552;29;20080;-64
2023/03/15 01:43:22;;;;;;;6.50;1.23;;;;;;;;;;4952089;28;20074;-62
2023/03/15 01:45:57;;;;;;;5.00;1.50;;;;;;;;;;4917425;29;20523;-63
2023/03/15 01:48:43;;;;;;;4.10;1.25;;;;;;;;;;4932813;29;20463;-67
2023/03/15 01:51:31;;;;;;;4.45;1.45;;;;;;;;;;4895055;29;20060;-63
2023/03/15 01:54:19;;;;;;;5.63;1.85;;;;;;;;;;4913959;29;20416;-64
2023/03/15 01:57:14;;;;;;;5.97;1.30;;;;;;;;;;4913595;29;20047;-60
2023/03/15 01:59:54;;;;;;;3.95;1.60;;;;;;;;;;4913865;29;20059;-64
2023/03/15 02:02:25;;;;;;;4.13;1.30;;;;;;;;;;4927481;29;20052;-66
2023/03/15 02:05:08;;;;;;;2.88;1.50;;;;;;;;;;4913156;29;20059;-61
2023/03/15 02:07:48;;;;;;;9.30;1.70;;;;;;;;;;4898950;29;20577;-58
2023/03/15 02:10:45;;;;;;;5.80;1.35;;;;;;;;;;4881436;29;20233;-66
2023/03/15 02:13:21;;;;;;;5.72;1.48;;;;;;;;;;4884822;29;20057;-61
2023/03/15 02:15:53;;;;;;;7.00;1.40;;;;;;;;;;4872246;29;20057;-64
2023/03/15 02:18:34;;;;;;;3.97;1.33;;;;;;;;;;4838115;29;20058;-71
2023/03/15 02:21:26;;;;;;;4.40;1.55;;;;;;;;;;4810078;29;20063;-63
2023/03/15 02:24:24;;;;;;;4.40;1.52;;;;;;;;;;4790673;29;20063;-67
2023/03/15 02:26:56;;;;;;;4.55;1.42;;;;;;;;;;4802540;29;20055;-63
2023/03/15 02:29:28;;;;;;;5.63;1.85;;;;;;;;;;4808245;29;20061;-64
2023/03/15 02:32:03;;;;;;;9.82;1.95;;;;;;;;;;4802577;29;20461;-63
2023/03/15 02:34:33;;;;;;;4.68;1.30;;;;;;;;;;4821760;29;20061;-64
2023/03/15 02:37:03;;;;;;;3.22;1.15;;;;;;;;;;4841683;29;20069;-63
2023/03/15 02:39:33;;;;;;;3.13;1.60;;;;;;;;;;4857349;29;20081;-63
2023/03/15 02:42:03;;;;;;;3.22;1.48;;;;;;;;;;4907182;29;20172;-63
2023/03/15 02:44:36;;;;;;;2.72;1.40;;;;;;;;;;4919847;29;20063;-63
2023/03/15 02:47:29;;;;;;;5.07;1.42;;;;;;;;;;4931887;29;20055;-63
2023/03/15 02:49:59;;;;;;;2.53;1.30;;;;;;;;;;4903502;29;20064;-63
2023/03/15 02:52:29;;;;;;;3.47;1.65;;;;;;;;;;4913746;29;20060;-66
2023/03/15 02:55:02;;;;;;;3.17;1.55;;;;;;;;;;4916119;29;20447;-66
2023/03/15 02:57:32;;;;;;;5.45;1.30;;;;;;;;;;4912926;29;20099;-64
2023/03/15 03:00:13;;;;;;;2.55;1.20;;;;;;;;;;4897488;29;20048;-63
2023/03/15 03:02:46;;;;;;;2.47;1.20;;;;;;;;;;4878089;29;20075;-64
2023/03/15 03:05:16;;;;;;;6.88;1.40;;;;;;;;;;4848093;29;20053;-62
2023/03/15 03:07:49;;;;;;;5.57;1.70;;;;;;;;;;4846288;29;20050;-63
2023/03/15 03:10:19;;;;;;;;;;;;;;;;;;4838984;29;20080;-62
2023/03/15 03:12:53;;;;;;;5.40;1.40;;;;;;;;;;4874747;29;19930;-67
2023/03/15 03:15:30;;;;;;;4.55;1.25;;;;;;;;;;4847616;29;20057;-63
2023/03/15 03:18:00;;;;;;;4.55;1.25;;;;;;;;;;4874859;29;20056;-71
2023/03/15 03:20:30;;;;;;;5.32;1.60;;;;;;;;;;4878437;29;20405;-65
2023/03/15 03:23:04;;;;;;;3.95;1.50;;;;;;;;;;4888774;29;20053;-62
2023/03/15 03:25:35;;;;;;;4.18;1.70;;;;;;;;;;4862297;29;20066;-63
2023/03/15 03:28:06;;;;;;;4.00;1.50;;;;;;;;;;4856033;29;20061;-63
2023/03/15 03:30:37;;;;;;;4.80;1.50;;;;;;;;;;4856561;29;20069;-63
2023/03/15 03:33:07;;;;;;;7.78;1.70;;;;;;;;;;4859484;29;20068;-64
2023/03/15 03:35:37;;;;;;;5.40;1.60;;;;;;;;;;4893309;29;20056;-62
2023/03/15 03:38:09;;;;;;;6.35;1.40;;;;;;;;;;4931046;29;20052;-59
2023/03/15 03:40:45;;;;;;;6.43;1.48;;;;;;;;;;4950304;29;20100;-62
2023/03/15 03:43:16;;;;;;;2.97;1.42;;;;;;;;;;4969434;28;20580;-62
2023/03/15 03:45:46;;;;;;;4.43;2.15;;;;;;;;;;4996091;28;20411;-62
2023/03/15 03:48:17;;;;;;;4.97;1.67;;;;;;;;;;5008352;28;20164;-61
2023/03/15 03:50:47;;;;;;;3.45;1.60;;;;;;;;;;5009051;28;20062;-62
2023/03/15 03:53:17;;;;;;;4.55;1.27;;;;;;;;;;5000925;28;20613;-61
2023/03/15 03:55:47;;;;;;;2.88;1.40;;;;;;;;;;4988820;28;20054;-63
2023/03/15 03:58:21;;;;;;;3.60;1.27;;;;;;;;;;5008025;28;20054;-72
2023/03/15 04:00:59;;;;;;;5.75;1.38;;;;;;;;;;4919859;29;20047;-58
2023/03/15 04:03:32;;;;;;;3.78;1.40;;;;;;;;;;4953818;29;20077;-62
2023/03/15 04:06:09;;;;;;;6.60;1.52;;;;;;;;;;4954038;29;20434;-58
2023/03/15 04:08:43;;;;;;;4.38;1.50;;;;;;;;;;4953656;29;20384;-63
2023/03/15 04:11:25;;;;;;;5.13;1.38;;;;;;;;;;4972879;28;20063;-63
2023/03/15 04:13:59;;;;;;;2.95;1.50;;;;;;;;;;4923917;29;20060;-66
2023/03/15 04:16:30;;;;;;;4.15;2.15;;;;;;;;;;4900657;29;20523;-65
2023/03/15 04:19:06;;;;;;;7.40;1.58;;;;;;;;;;4853390;29;20054;-64
2023/03/15 04:21:37;;;;;;;6.28;1.60;;;;;;;;;;4882497;29;20065;-63
2023/03/15 04:24:40;;;;;;;5.55;1.50;;;;;;;;;;4848504;29;20050;-62
2023/03/15 04:27:15;;;;;;;5.03;1.50;;;;;;;;;;4851992;29;20046;-62
2023/03/15 04:30:04;;;;;;;;;;;;;;;;;;4860084;29;20050;-60
2023/03/15 04:32:37;;;;;;;6.05;1.58;;;;;;;;;;4872543;29;19939;-62
2023/03/15 04:35:34;;;;;;;7.18;1.90;;;;;;;;;;4889421;29;20057;-63
2023/03/15 04:38:25;;;;;;;8.02;1.73;;;;;;;;;;4846008;29;20440;-61
2023/03/15 04:41:18;;;;;;;5.47;1.98;;;;;;;;;;4837643;29;20551;-62
2023/03/15 04:44:07;;;;;;;3.35;1.52;;;;;;;;;;4823382;29;20527;-62
2023/03/15 04:46:44;;;;;;;5.43;1.58;;;;;;;;;;4845628;29;20446;-64
2023/03/15 04:49:33;;;;;;;2.33;1.50;;;;;;;;;;4856367;29;20053;-64
2023/03/15 04:52:27;;;;;;;8.43;1.73;;;;;;;;;;4874124;29;20054;-63
2023/03/15 04:55:16;;;;;;;4.50;1.48;;;;;;;;;;4875617;29;20053;-64
2023/03/15 04:58:00;;;;;;;4.63;1.90;;;;;;;;;;4877612;29;20441;-63
2023/03/15 05:00:53;;;;;;;5.10;1.50;;;;;;;;;;4884109;29;20053;-63
2023/03/15 05:03:44;;;;;;;4.85;1.45;;;;;;;;;;4858875;29;20568;-61
2023/03/15 05:06:52;;;;;;;7.88;1.30;;;;;;;;;;4877384;29;20061;-63
2023/03/15 05:09:23;;;;;;;3.15;1.40;;;;;;;;;;4877678;29;20552;-62
2023/03/15 05:12:05;;;;;;;5.75;1.35;;;;;;;;;;4849760;29;20061;-64
2023/03/15 05:14:57;;;;;;;6.70;1.52;;;;;;;;;;4825250;29;20062;-63
2023/03/15 05:17:47;;;;;;;3.20;1.50;;;;;;;;;;4814748;29;20054;-64
2023/03/15 05:20:36;;;;;;;8.73;1.88;;;;;;;;;;4826965;29;20502;-63
2023/03/15 05:23:25;;;;;;;5.32;1.67;;;;;;;;;;4840788;29;20058;-58
2023/03/15 05:26:27;;;;;;;6.00;1.92;;;;;;;;;;4858431;29;20053;-59
2023/03/15 05:29:23;;;;;;;4.65;1.48;;;;;;;;;;4872772;29;20060;-61
2023/03/15 05:32:05;;;;;;;3.97;1.50;;;;;;;;;;4876919;29;20053;-70
2023/03/15 05:35:06;;;;;;;3.58;1.70;;;;;;;;;;4895554;29;20056;-62
2023/03/15 05:38:13;;;;;;;4.80;1.67;;;;;;;;;;4866462;29;20058;-62
2023/03/15 05:40:46;;;;;;;6.47;2.40;;;;;;;;;;4873046;29;20061;-63
2023/03/15 05:43:37;;;;;;;5.60;1.92;;;;;;;;;;4845933;29;20465;-63
2023/03/15 05:46:28;;;;;;;4.75;1.88;;;;;;;;;;4895388;29;20064;-62
2023/03/15 05:49:20;;;;;;;4.88;1.92;;;;;;;;;;4870499;29;20049;-62
2023/03/15 05:52:05;;;;;;;5.68;2.17;;;;;;;;;;4913986;29;20441;-63
2023/03/15 05:54:55;;;;;;;7.38;1.73;;;;;;;;;;4876673;29;20094;-65
2023/03/15 05:58:05;;;;;;;;;;;;;;;;;;4845614;29;20049;-64
2023/03/15 06:01:22;;;;;;;5.97;1.48;;;;;;;;;;4876996;29;19930;-69
2023/03/15 06:04:16;;;;;;;5.63;2.33;;;;;;;;;;4858675;29;20049;-63
2023/03/15 06:06:46;;;;;;;4.32;1.90;;;;;;;;;;4879443;29;20063;-63
2023/03/15 06:09:14;;;;;;;4.72;2.40;;;;;;;;;;4815574;29;20071;-70
2023/03/15 06:11:42;;;;;;;7.35;2.20;;;;;;;;;;4814499;29;20638;-63
2023/03/15 06:14:13;;;;;;;9.75;2.10;;;;;;;;;;4774634;29;20503;-63
2023/03/15 06:16:59;;;;;;;4.90;2.17;;;;;;;;;;4820753;29;20519;-62
2023/03/15 06:19:29;;;;;;;7.85;1.85;;;;;;;;;;4772870;29;20051;-62
2023/03/15 06:21:57;;;;;;;8.90;2.15;;;;;;;;;;4805332;29;20603;-64
2023/03/15 06:24:34;;;;;;;5.10;2.13;;;;;;;;;;4752128;30;20543;-62
2023/03/15 06:27:02;;;;;;;7.93;1.90;;;;;;;;;;4748469;30;20071;-58
2023/03/15 06:29:35;;;;;;;9.25;2.17;;;;;;;;;;4778107;30;20059;-60
2023/03/15 06:32:07;;;;;;;7.20;2.20;;;;;;;;;;4802077;29;20114;-66
2023/03/15 06:34:40;;;;;;;5.90;2.00;;;;;;;;;;4801796;29;20059;-64
2023/03/15 06:37:15;;;;;;;4.22;2.10;;;;;;;;;;4779605;29;20421;-64
2023/03/15 06:40:07;;;;;;;8.73;2.00;;;;;;;;;;4786879;29;20059;-63
2023/03/15 06:42:40;;;;;;;6.15;2.10;;;;;;;;;;4839288;29;20102;-71
2023/03/15 06:45:14;;;;;;;6.05;2.40;;;;;;;;;;4820426;29;20554;-63
2023/03/15 06:47:45;;;;;;;5.10;1.85;;;;;;;;;;4856897;29;20108;-62
2023/03/15 06:50:17;;;;;;;8.43;1.90;;;;;;;;;;4875064;29;20053;-63
2023/03/15 06:52:48;;;;;;;5.43;1.80;;;;;;;;;;4838349;29;20057;-63
2023/03/15 06:55:18;;;;;;;5.03;2.00;;;;;;;;;;4884761;29;20057;-61
2023/03/15 06:57:49;;;;;;;6.65;2.13;;;;;;;;;;4893922;29;20056;-64
2023/03/15 07:00:19;;;;;;;2.95;2.10;;;;;;;;;;4872554;29;20049;-64
2023/03/15 07:02:49;;;;;;;4.57;1.90;;;;;;;;;;4860072;29;20131;-65
2023/03/15 07:05:19;;;;;;;5.40;2.22;;;;;;;;;;4904856;29;20056;-61
2023/03/15 07:07:49;;;;;;;3.35;2.00;;;;;;;;;;4950299;29;20058;-63
2023/03/15 07:10:20;;;;;;;6.75;1.77;;;;;;;;;;4950694;29;20062;-59
2023/03/15 07:12:50;;;;;;;4.93;2.47;;;;;;;;;;4919305;29;20522;-67
2023/03/15 07:15:20;;;;;;;3.90;1.65;;;;;;;;;;4977147;28;20057;-58
2023/03/15 07:17:49;;;;;;;3.70;1.88;;;;;;;;;;4941463;28;20062;-63
2023/03/15 07:20:19;;;;;;;8.40;2.20;;;;;;;;;;4947720;29;20063;-64
2023/03/15 07:22:49;;;;;;;7.63;2.20;;;;;;;;;;4973148;28;20060;-66
2023/03/15 07:25:22;;;;;;;11.18;2.03;;;;;;;;;;4931785;29;20063;-63
2023/03/15 07:27:53;;;;;;;3.30;1.90;;;;;;;;;;4931888;29;20068;-63
2023/03/15 07:30:23;;;;;;;4.00;2.03;;;;;;;;;;4900651;29;20059;-63
2023/03/15 07:32:53;;;;;;;11.00;2.25;;;;;;;;;;4937007;28;20081;-62
2023/03/15 07:35:23;;;;;;;6.22;2.05;;;;;;;;;;4981180;28;20053;-63
2023/03/15 07:37:52;;;;;;;4.45;1.77;;;;;;;;;;5012097;28;20052;-63
2023/03/15 07:40:23;;;;;;;6.78;1.85;;;;;;;;;;5031070;28;20238;-63
2023/03/15 07:42:53;;;;;;;6.65;1.85;;;;;;;;;;5031276;28;20512;-63
2023/03/15 07:45:23;;;;;;;5.93;2.10;;;;;;;;;;5008654;28;20054;-63
2023/03/15 07:47:53;;;;;;;3.05;1.70;;;;;;;;;;5048552;28;20060;-72
2023/03/15 07:50:24;;;;;;;3.97;1.90;;;;;;;;;;5067880;28;20056;-63
2023/03/15 07:52:54;;;;;;;5.35;1.70;;;;;;;;;;5018909;28;20543;-62
2023/03/15 07:55:24;;;;;;;7.75;1.50;;;;;;;;;;5018842;28;20759;-68
2023/03/15 07:57:54;;;;;;;5.75;1.63;;;;;;;;;;5068508;28;20060;-62
2023/03/15 08:00:24;;;;;;;4.35;1.80;;;;;;;;;;5028271;28;20057;-67
2023/03/15 08:02:55;;;;;;;2.85;1.70;;;;;;;;;;5012364;28;20428;-64
2023/03/15 08:05:25;;;;;;;6.32;1.88;;;;;;;;;;5028291;28;20413;-63
2023/03/15 08:07:56;;;;;;;6.50;1.80;;;;;;;;;;5028172;28;20072;-63
2023/03/15 08:10:26;;;;;;;4.22;1.60;;;;;;;;;;5028101;28;20057;-71
2023/03/15 08:12:56;;;;;;;4.72;1.70;;;;;;;;;;5028221;28;20049;-63
2023/03/15 08:15:26;;;;;;;6.57;1.73;;;;;;;;;;5011536;28;20064;-64
2023/03/15 08:17:58;;;;;;;8.65;2.17;;;;;;;;;;4988815;28;20057;-63
2023/03/15 08:20:28;;;;;;;6.20;1.88;;;;;;;;;;4988734;28;20069;-61
2023/03/15 08:22:58;;;;;;;4.25;1.83;;;;;;;;;;4988849;28;20055;-58
2023/03/15 08:25:29;;;;;;;3.53;1.73;;;;;;;;;;4931238;28;20052;-63
2023/03/15 08:28:00;;;;;;;9.75;2.03;;;;;;;;;;4921306;29;20063;-64
2023/03/15 08:30:31;;;;;;;4.50;1.80;;;;;;;;;;4946700;28;20048;-65
2023/03/15 08:33:00;;;;;;;9.80;2.00;;;;;;;;;;4931245;29;20063;-63
2023/03/15 08:35:33;;;;;;;3.28;1.88;;;;;;;;;;4931047;29;20051;-69
2023/03/15 08:38:03;;;;;;;4.95;1.63;;;;;;;;;;4903235;28;20070;-65
2023/03/15 08:40:32;;;;;;;6.25;1.90;;;;;;;;;;4953173;28;20055;-61
2023/03/15 08:43:02;;;;;;;5.68;2.20;;;;;;;;;;4969542;28;20495;-63
2023/03/15 08:45:32;;;;;;;4.35;2.10;;;;;;;;;;4969528;28;20064;-59
2023/03/15 08:48:22;;;;;;;4.45;1.75;;;;;;;;;;4974840;28;20043;-63
2023/03/15 08:50:53;;;;;;;14.57;2.47;;;;;;;;;;4927754;28;20269;-65
2023/03/15 08:53:22;;;;;;;7.40;2.13;;;;;;;;;;4960203;28;20069;-62
2023/03/15 08:55:52;;;;;;;6.43;1.63;;;;;;;;;;4992375;28;20054;-63
2023/03/15 08:58:22;;;;;;;3.15;2.08;;;;;;;;;;5004019;28;20058;-64
2023/03/15 09:00:53;;;;;;;5.13;2.00;;;;;;;;;;5011847;28;20064;-65
2023/03/15 09:03:23;;;;;;;4.57;1.70;;;;;;;;;;5025364;28;20066;-71
2023/03/15 09:05:57;;;;;;;5.63;2.05;;;;;;;;;;5033010;28;20042;-63
2023/03/15 09:08:27;;;;;;;3.80;2.00;;;;;;;;;;5015369;28;20053;-63
2023/03/15 09:10:57;;;;;;;5.10;1.83;;;;;;;;;;4999090;28;20398;-63
2023/03/15 09:13:27;;;;;;;2.92;1.67;;;;;;;;;;5014899;28;20066;-73
2023/03/15 09:15:57;;;;;;;5.10;2.15;;;;;;;;;;5033603;28;20064;-63
2023/03/15 09:18:27;;;;;;;3.92;2.20;;;;;;;;;;5033718;28;20045;-63
2023/03/15 09:20:57;;;;;;;2.92;1.90;;;;;;;;;;5030899;28;20060;-65
2023/03/15 09:23:27;;;;;;;6.28;1.80;;;;;;;;;;4981861;28;20065;-63
2023/03/15 09:25:57;;;;;;;7.85;2.10;;;;;;;;;;5031069;28;20057;-67
2023/03/15 09:28:27;;;;;;;6.53;1.90;;;;;;;;;;5011068;28;20685;-63
2023/03/15 09:30:57;;;;;;;8.30;2.10;;;;;;;;;;4994693;28;20053;-63
2023/03/15 09:33:28;;;;;;;3.60;1.75;;;;;;;;;;5010948;28;20064;-64
2023/03/15 09:35:58;;;;;;;4.20;1.60;;;;;;;;;;5011322;28;20057;-61
2023/03/15 09:38:28;;;;;;;3.55;1.67;;;;;;;;;;5010763;28;20058;-63
2023/03/15 09:40:59;;;;;;;3.60;1.77;;;;;;;;;;5010649;28;20426;-64
2023/03/15 09:43:56;;;;;;;5.07;2.13;;;;;;;;;;5010851;28;20050;-65
2023/03/15 09:46:46;;;;;;;3.97;1.83;;;;;;;;;;5010558;28;20049;-63
2023/03/15 09:49:50;;;;;;;5.68;2.03;;;;;;;;;;4933258;29;20051;-62
2023/03/15 09:52:59;;;;;;;4.05;2.00;;;;;;;;;;4876734;29;20678;-63
2023/03/15 09:55:30;;;;;;;6.10;1.77;;;;;;;;;;4788267;29;20519;-63
2023/03/15 09:58:10;;;;;;;3.50;1.80;;;;;;;;;;4803253;29;20571;-66
2023/03/15 10:00:52;;;;;;;4.85;2.17;;;;;;;;;;4819943;29;20062;-63
2023/03/15 10:03:46;;;;;;;9.90;3.28;;;;;;;;;;4821242;29;20058;-62
2023/03/15 10:06:21;;;;;;;6.75;2.63;;;;;;;;;;4831540;29;20069;-63
2023/03/15 10:08:59;;;;;;;4.30;1.92;;;;;;;;;;4835552;29;20061;-62
2023/03/15 10:11:56;;;;;;;5.00;2.58;;;;;;;;;;4820530;29;20203;-63
2023/03/15 10:14:26;;;;;;;6.97;2.13;;;;;;;;;;4790815;29;20081;-60
2023/03/15 10:16:55;;;;;;;5.90;2.40;;;;;;;;;;4769599;30;20633;-69
2023/03/15 10:19:38;;;;;;;5.40;2.05;;;;;;;;;;4784630;29;20467;-63
2023/03/15 10:22:23;;;;;;;3.90;1.80;;;;;;;;;;4784486;30;20070;-63
2023/03/15 10:25:28;;;;;;;3.35;1.73;;;;;;;;;;4784660;30;20063;-63
2023/03/15 10:28:05;;;;;;;4.10;2.30;;;;;;;;;;4852928;29;20463;-63
2023/03/15 10:30:37;;;;;;;3.42;1.90;;;;;;;;;;4857363;29;20041;-63
2023/03/15 10:33:28;;;;;;;4.55;1.88;;;;;;;;;;4876043;29;20059;-61
2023/03/15 10:36:00;;;;;;;8.07;2.00;;;;;;;;;;4897644;29;20060;-64
2023/03/15 10:38:40;;;;;;;10.45;2.80;;;;;;;;;;4937295;28;20059;-63
2023/03/15 10:41:26;;;;;;;5.53;2.22;;;;;;;;;;4932270;29;20060;-66
2023/03/15 10:44:04;;;;;;;4.35;2.17;;;;;;;;;;4969504;28;20051;-62
2023/03/15 10:46:34;;;;;;;5.40;2.30;;;;;;;;;;4911119;29;20832;-61
2023/03/15 10:49:16;;;;;;;6.13;2.25;;;;;;;;;;4931786;29;20048;-71
2023/03/15 10:51:47;;;;;;;3.75;2.05;;;;;;;;;;4919525;29;20516;-64
2023/03/15 10:54:21;;;;;;;5.18;2.15;;;;;;;;;;4928662;29;20075;-70
2023/03/15 10:57:06;;;;;;;5.70;2.35;;;;;;;;;;4882051;29;20064;-62
2023/03/15 10:59:35;;;;;;;;;;;;;;;;;;4898012;29;20067;-63
2023/03/15 11:02:19;;;;;;;5.63;2.08;;;;;;;;;;4913163;29;19927;-63
2023/03/15 11:05:00;;;;;;;;;;;;;;;;;;4964418;28;20046;-59
2023/03/15 11:07:34;;;;;;;3.67;2.08;;;;;;;;;;4987463;28;19926;-63
2023/03/15 11:10:06;;;;;;;4.85;2.17;;;;;;;;;;5005230;28;20065;-58
2023/03/15 11:12:37;;;;;;;5.35;2.22;;;;;;;;;;5013893;28;20072;-61
2023/03/15 11:15:14;;;;;;;3.85;1.63;;;;;;;;;;4980019;28;20188;-63
2023/03/15 11:17:48;;;;;;;3.88;2.00;;;;;;;;;;4992597;28;20050;-64
2023/03/15 11:20:38;;;;;;;3.75;1.85;;;;;;;;;;5028863;28;20061;-62
2023/03/15 11:23:19;;;;;;;4.88;2.65;;;;;;;;;;5028836;28;20053;-73
2023/03/15 11:25:49;;;;;;;6.47;2.30;;;;;;;;;;5012304;28;20057;-65
2023/03/15 11:28:31;;;;;;;3.80;2.28;;;;;;;;;;4980170;28;20053;-67
2023/03/15 11:31:04;;;;;;;4.32;2.10;;;;;;;;;;5028318;28;20088;-59
2023/03/15 11:33:45;;;;;;;7.53;2.30;;;;;;;;;;5028879;28;20045;-58
2023/03/15 11:36:22;;;;;;;3.60;2.15;;;;;;;;;;5028636;28;20567;-64
2023/03/15 11:38:52;;;;;;;4.50;2.50;;;;;;;;;;5028776;28;20180;-64
2023/03/15 11:41:43;;;;;;;4.38;1.83;;;;;;;;;;5028366;28;20054;-62
2023/03/15 11:44:19;;;;;;;;;;;;;;;;;;4969134;28;20601;-63
2023/03/15 11:46:57;;;;;;;4.07;1.73;;;;;;;;;;5027252;28;19928;-63
2023/03/15 11:49:43;;;;;;;5.50;1.80;;;;;;;;;;4974866;28;20054;-65
2023/03/15 11:52:16;;;;;;;2.15;1.30;;;;;;;;;;5027885;28;20072;-69
2023/03/15 11:54:46;;;;;;;1.73;1.00;;;;;;;;;;5034027;28;20062;-64
2023/03/15 11:57:29;;;;;;;2.80;1.00;;;;;;;;;;5033569;28;20049;-61
2023/03/15 12:00:20;;;;;;;3.67;1.25;;;;;;;;;;5033950;28;20200;-64
2023/03/15 12:03:00;;;;;;;2.30;1.27;;;;;;;;;;5047228;28;20084;-63
2023/03/15 12:06:13;;;;;;;3.70;1.10;;;;;;;;;;5064837;28;20045;-61
2023/03/15 12:08:50;;;;;;;2.53;0.80;;;;;;;;;;5007943;28;20503;-66
2023/03/15 12:11:21;;;;;;;2.13;0.70;;;;;;;;;;4956454;28;20058;-65
2023/03/15 12:13:59;;;;;;;4.97;0.82;;;;;;;;;;4988995;28;20058;-64
2023/03/15 12:16:40;;;;;;;1.50;0.80;;;;;;;;;;4999243;28;20394;-66
2023/03/15 12:19:19;;;;;;;1.85;0.88;;;;;;;;;;5003958;28;20062;-65
2023/03/15 12:21:52;;;;;;;1.20;0.73;;;;;;;;;;5007144;28;20087;-66
2023/03/15 12:24:27;;;;;;;1.15;0.82;;;;;;;;;;5011409;28;20496;-65
2023/03/15 12:27:21;;;;;;;2.42;0.77;;;;;;;;;;4963606;28;21058;-65
2023/03/15 12:30:00;;;;;;;1.85;0.98;;;;;;;;;;4991764;28;20054;-62
2023/03/15 12:32:42;;;;;;;1.20;0.63;;;;;;;;;;5008259;28;20054;-62
2023/03/15 12:35:19;;;;;;;2.47;0.80;;;;;;;;;;5011354;28;20053;-64
2023/03/15 12:37:51;;;;;;;1.33;0.70;;;;;;;;;;5011409;28;20060;-64
2023/03/15 12:40:27;;;;;;;1.17;0.52;;;;;;;;;;4972570;28;20051;-70
2023/03/15 12:43:01;;;;;;;0.82;0.60;;;;;;;;;;4973006;28;20538;-66
2023/03/15 12:45:37;;;;;;;1.50;0.75;;;;;;;;;;4996490;28;20410;-65
2023/03/15 12:48:12;;;;;;;1.88;0.80;;;;;;;;;;4931559;28;20049;-64
2023/03/15 12:50:46;;;;;;;1.08;0.68;;;;;;;;;;5011011;28;20541;-63
2023/03/15 12:53:21;;;;;;;3.47;1.00;;;;;;;;;;5011195;28;20058;-65
2023/03/15 12:55:53;;;;;;;2.75;0.80;;;;;;;;;;4989275;28;20051;-72
2023/03/15 12:58:37;;;;;;;1.73;0.65;;;;;;;;;;4990026;28;20065;-65
2023/03/15 13:01:14;;;;;;;2.20;0.80;;;;;;;;;;4989608;28;20058;-65
2023/03/15 13:03:45;;;;;;;1.55;0.68;;;;;;;;;;4990396;28;20062;-64
2023/03/15 13:06:32;;;;;;;1.60;0.70;;;;;;;;;;4939547;28;20057;-67
2023/03/15 13:09:24;;;;;;;2.53;0.70;;;;;;;;;;4988293;28;20529;-65
2023/03/15 13:12:17;;;;;;;1.02;0.60;;;;;;;;;;4988811;28;20061;-61
2023/03/15 13:15:02;;;;;;;1.77;0.60;;;;;;;;;;4941789;28;20172;-69
2023/03/15 13:17:55;;;;;;;5.68;0.80;;;;;;;;;;4992311;28;20053;-64
2023/03/15 13:20:35;;;;;;;2.55;0.60;;;;;;;;;;5010565;28;20058;-60
2023/03/15 13:23:27;;;;;;;1.67;0.70;;;;;;;;;;5029739;28;21542;-64
2023/03/15 13:26:18;;;;;;;1.35;0.63;;;;;;;;;;5029489;28;20045;-66
2023/03/15 13:29:05;;;;;;;3.88;0.80;;;;;;;;;;5046633;28;20897;-67
2023/03/15 13:31:36;;;;;;;1.98;0.50;;;;;;;;;;5009121;28;20037;-68
2023/03/15 13:34:23;;;;;;;1.25;0.70;;;;;;;;;;5046416;28;20049;-66
2023/03/15 13:36:59;;;;;;;1.15;0.57;;;;;;;;;;5048245;28;20057;-61
2023/03/15 13:39:34;;;;;;;3.28;0.82;;;;;;;;;;5029058;28;20516;-66
2023/03/15 13:42:04;;;;;;;;;;;;;;;;;;5024614;28;20045;-64
2023/03/15 13:44:34;;;;;;;0.82;0.52;;;;;;;;;;5049319;28;19929;-63
2023/03/15 13:47:04;;;;;;;1.98;1.42;;;;;;;;;;5047961;28;20045;-59
2023/03/15 13:49:34;;;;;;;1.40;0.70;;;;;;;;;;5051538;28;20061;-60
2023/03/15 13:52:11;;;;;;;0.85;0.57;;;;;;;;;;5051708;28;20519;-60
2023/03/15 13:54:42;;;;;;;1.55;0.50;;;;;;;;;;5052077;28;20045;-62
2023/03/15 13:57:20;;;;;;;;;;;;;;;;;;5052095;28;20052;-67
2023/03/15 14:00:10;;;;;;;0.75;0.30;;;;;;;;;;5050925;28;20391;-63
2023/03/15 14:02:46;;;;;;;1.33;0.43;;;;;;;;;;5050925;28;20044;-64
2023/03/15 14:05:26;;;;;;;0.60;0.40;;;;;;;;;;5022471;28;20054;-62
2023/03/15 14:08:03;;;;;;;2.67;0.30;;;;;;;;;;5051047;28;20056;-61
2023/03/15 14:10:38;;;;;;;1.80;0.52;;;;;;;;;;5051380;28;20048;-64
2023/03/15 14:13:25;;;;;;;2.17;0.40;;;;;;;;;;5051062;28;20432;-67
2023/03/15 14:16:07;;;;;;;1.20;0.40;;;;;;;;;;5073120;28;20048;-63
2023/03/15 14:18:41;;;;;;;2.22;0.52;;;;;;;;;;5061954;28;20045;-62
2023/03/15 14:21:18;;;;;;;2.22;0.55;;;;;;;;;;5016558;28;20049;-64
2023/03/15 14:23:49;;;;;;;0.93;0.40;;;;;;;;;;5045650;28;20052;-61
2023/03/15 14:26:30;;;;;;;0.90;0.43;;;;;;;;;;5050680;28;20500;-63
2023/03/15 14:29:07;;;;;;;1.95;0.50;;;;;;;;;;5049660;28;20049;-61
2023/03/15 14:31:45;;;;;;;1.25;0.63;;;;;;;;;;5015832;28;20068;-64
2023/03/15 14:34:35;;;;;;;2.15;0.55;;;;;;;;;;5030292;28;20049;-59
2023/03/15 14:37:36;;;;;;;0.65;0.30;;;;;;;;;;5047249;28;20408;-65
2023/03/15 14:40:22;;;;;;;2.10;0.57;;;;;;;;;;5049978;28;20051;-66
2023/03/15 14:42:53;;;;;;;0.77;0.45;;;;;;;;;;5031670;28;20064;-62
2023/03/15 14:45:22;;;;;;;0.73;0.52;;;;;;;;;;5021870;28;20057;-61
2023/03/15 14:47:57;;;;;;;1.73;0.65;;;;;;;;;;5027585;28;20061;-66
2023/03/15 14:50:32;;;;;;;1.25;0.43;;;;;;;;;;4996966;28;20065;-65
2023/03/15 14:53:03;;;;;;;0.60;0.50;;;;;;;;;;5020685;28;20056;-66
2023/03/15 14:55:35;;;;;;;1.58;0.65;;;;;;;;;;4979697;28;20053;-65
2023/03/15 14:58:16;;;;;;;0.95;0.50;;;;;;;;;;5027963;28;20468;-63
2023/03/15 15:00:52;;;;;;;0.70;0.40;;;;;;;;;;5027915;28;20045;-65
2023/03/15 15:03:31;;;;;;;2.13;0.50;;;;;;;;;;5027424;28;20045;-63
2023/03/15 15:06:02;;;;;;;0.80;0.40;;;;;;;;;;5046688;28;20512;-71
2023/03/15 15:08:32;;;;;;;1.52;0.40;;;;;;;;;;5048741;28;20057;-64
2023/03/15 15:11:03;;;;;;;0.93;0.52;;;;;;;;;;5047972;28;20060;-61
2023/03/15 15:13:34;;;;;;;3.40;0.50;;;;;;;;;;5047556;28;20489;-62
2023/03/15 15:16:05;;;;;;;2.45;0.40;;;;;;;;;;5048264;28;20483;-64
2023/03/15 15:18:36;;;;;;;0.90;0.45;;;;;;;;;;5048608;28;20044;-63
2023/03/15 15:21:29;;;;;;;1.23;0.50;;;;;;;;;;5048043;28;20536;-66
2023/03/15 15:24:03;;;;;;;0.77;0.57;;;;;;;;;;5066411;28;20060;-62
2023/03/15 15:26:35;;;;;;;0.63;0.52;;;;;;;;;;5068192;28;20626;-60
2023/03/15 15:29:04;;;;;;;0.43;0.40;;;;;;;;;;5068748;28;20044;-59
2023/03/15 15:31:34;;;;;;;1.98;0.60;;;;;;;;;;5068323;28;20056;-62
2023/03/15 15:34:04;;;;;;;1.00;0.73;;;;;;;;;;5068221;28;20051;-63
2023/03/15 15:36:38;;;;;;;1.08;0.40;;;;;;;;;;5063734;28;20048;-62
2023/03/15 15:39:28;;;;;;;0.60;0.40;;;;;;;;;;5032077;28;20057;-60
2023/03/15 15:41:57;;;;;;;0.50;0.40;;;;;;;;;;5048305;28;20047;-66